Time;durP1;ratioP1;P1;durP2;ratioP2;P2;SDS_P1;SDS_P2;PMS_P1;PMS_P2;Temp;Humidity;BMP_temperature;BMP_pressure;BME280_temperature;BME280_humidity;BME280_pressure;Samples;Min_cycle;Max_cycle;Signal;HPM_P1;HPM_P2
2023/06/25 00:00:37;;;;;;;10.97;10.17;;;17.70;70.70;;;;;;6224339;28;20243;-83
2023/06/25 00:03:41;;;;;;;10.77;9.83;;;17.70;70.80;;;;;;6230198;28;20361;-83
2023/06/25 00:06:45;;;;;;;11.10;10.30;;;17.60;70.90;;;;;;6222282;28;20407;-85
2023/06/25 00:09:54;;;;;;;11.63;10.60;;;17.60;71.00;;;;;;6230113;28;20238;-83
2023/06/25 00:12:59;;;;;;;9.93;9.13;;;17.60;71.20;;;;;;6237564;28;20234;-85
2023/06/25 00:16:02;;;;;;;11.40;10.50;;;17.60;71.30;;;;;;6226950;28;20250;-85
2023/06/25 00:19:05;;;;;;;11.83;10.70;;;17.50;71.50;;;;;;6228125;28;20309;-83
2023/06/25 00:22:11;;;;;;;12.60;11.60;;;17.50;71.70;;;;;;6230869;28;20242;-84
2023/06/25 00:25:16;;;;;;;11.43;10.53;;;17.60;71.90;;;;;;6219987;28;20738;-83
2023/06/25 00:28:20;;;;;;;12.00;10.93;;;17.60;72.00;;;;;;6233696;28;20231;-85
2023/06/25 00:31:24;;;;;;;12.67;11.50;;;17.60;72.00;;;;;;6238351;28;20230;-83
2023/06/25 00:34:27;;;;;;;12.57;11.40;;;17.70;72.00;;;;;;6221979;28;20326;-84
2023/06/25 00:37:30;;;;;;;12.07;11.07;;;17.80;72.00;;;;;;6229383;28;20238;-84
2023/06/25 00:40:33;;;;;;;11.60;10.70;;;17.80;72.00;;;;;;6237457;28;20372;-85
2023/06/25 00:43:42;;;;;;;12.27;11.17;;;17.80;71.80;;;;;;6236032;28;20238;-84
2023/06/25 00:46:46;;;;;;;12.60;11.50;;;17.80;71.60;;;;;;6226346;28;20247;-84
2023/06/25 00:49:49;;;;;;;13.73;12.43;;;17.90;71.50;;;;;;6231409;28;20238;-84
2023/06/25 00:52:53;;;;;;;12.97;11.70;;;18.00;71.20;;;;;;6210887;28;20245;-84
2023/06/25 00:55:57;;;;;;;13.47;12.27;;;18.00;70.90;;;;;;6220876;28;20245;-84
2023/06/25 00:59:03;;;;;;;12.43;11.23;;;18.00;70.60;;;;;;6224953;28;20727;-86
2023/06/25 01:02:16;;;;;;;12.30;11.23;;;18.10;70.40;;;;;;6222561;28;20235;-85
2023/06/25 01:05:27;;;;;;;12.57;11.57;;;18.10;70.10;;;;;;6234485;28;20246;-84
2023/06/25 01:08:32;;;;;;;12.17;11.17;;;18.10;70.00;;;;;;6234530;28;20239;-84
2023/06/25 01:11:37;;;;;;;11.00;10.20;;;18.20;70.00;;;;;;6231947;28;20253;-84
2023/06/25 01:14:42;;;;;;;12.93;11.57;;;18.20;69.90;;;;;;6237630;28;20282;-86
2023/06/25 01:17:48;;;;;;;12.97;11.77;;;18.20;69.80;;;;;;6243006;28;20243;-84
2023/06/25 01:20:53;;;;;;;11.17;10.27;;;18.20;69.80;;;;;;6236987;28;20612;-84
2023/06/25 01:23:59;;;;;;;12.17;11.13;;;18.20;69.70;;;;;;6236268;28;20235;-84
2023/06/25 01:27:04;;;;;;;11.47;10.47;;;18.20;69.80;;;;;;6231688;28;20322;-83
2023/06/25 01:30:09;;;;;;;10.93;10.10;;;18.30;69.70;;;;;;6220255;28;20250;-85
2023/06/25 01:33:15;;;;;;;11.60;10.60;;;18.30;69.60;;;;;;6238224;28;20232;-85
2023/06/25 01:36:18;;;;;;;10.60;9.70;;;18.30;69.60;;;;;;6239413;28;20234;-84
2023/06/25 01:39:24;;;;;;;11.13;10.13;;;18.30;69.60;;;;;;6249119;28;20412;-84
2023/06/25 01:42:27;;;;;;;12.40;11.30;;;18.40;69.60;;;;;;6232622;28;20235;-85
2023/06/25 01:45:31;;;;;;;12.77;11.50;;;18.40;69.60;;;;;;6231314;28;20332;-83
2023/06/25 01:48:35;;;;;;;12.10;11.20;;;18.40;69.50;;;;;;6232384;28;20238;-85
2023/06/25 01:51:38;;;;;;;14.23;12.73;;;18.40;69.50;;;;;;6227222;28;20714;-84
2023/06/25 01:54:43;;;;;;;13.17;12.07;;;18.50;69.40;;;;;;6239736;28;20729;-87
2023/06/25 01:57:46;;;;;;;14.43;13.13;;;18.50;69.40;;;;;;6223881;28;20655;-85
2023/06/25 02:00:50;;;;;;;13.30;12.30;;;18.50;69.40;;;;;;6248878;28;20240;-84
2023/06/25 02:03:53;;;;;;;14.23;13.03;;;18.50;69.30;;;;;;6257620;28;20348;-85
2023/06/25 02:06:57;;;;;;;14.70;13.37;;;18.50;69.30;;;;;;6248223;28;20230;-85
2023/06/25 02:10:02;;;;;;;14.87;13.57;;;18.60;69.50;;;;;;6264177;28;20233;-86
2023/06/25 02:13:07;;;;;;;15.03;13.53;;;18.60;69.50;;;;;;6257229;28;20239;-85
2023/06/25 02:16:12;;;;;;;15.03;13.63;;;18.60;69.30;;;;;;6264799;28;20736;-85
2023/06/25 02:19:15;;;;;;;13.73;12.60;;;18.70;68.90;;;;;;6257861;28;20300;-86
2023/06/25 02:22:18;;;;;;;12.97;11.93;;;18.70;68.80;;;;;;6254305;28;20303;-85
2023/06/25 02:25:23;;;;;;;12.83;11.67;;;18.70;68.70;;;;;;6252654;28;20875;-85
2023/06/25 02:28:27;;;;;;;12.00;10.90;;;18.70;68.50;;;;;;6252553;28;20241;-85
2023/06/25 02:31:30;;;;;;;12.57;11.50;;;18.80;68.30;;;;;;6258731;28;20250;-85
2023/06/25 02:34:34;;;;;;;10.83;10.03;;;18.80;68.20;;;;;;6250017;28;20238;-85
2023/06/25 02:37:37;;;;;;;10.73;9.93;;;18.80;68.20;;;;;;6240526;28;20261;-85
2023/06/25 02:40:42;;;;;;;12.37;11.17;;;18.80;68.20;;;;;;6238808;28;20231;-86
2023/06/25 02:43:45;;;;;;;11.90;10.87;;;18.80;68.30;;;;;;6240472;28;20239;-83
2023/06/25 02:46:48;;;;;;;10.60;9.73;;;18.80;68.20;;;;;;6223159;28;20239;-85
2023/06/25 02:49:51;;;;;;;11.30;10.20;;;18.80;68.00;;;;;;6224836;28;20305;-85
2023/06/25 02:52:56;;;;;;;11.40;10.50;;;18.80;68.00;;;;;;6230226;28;20733;-85
2023/06/25 02:56:01;;;;;;;10.63;9.70;;;18.80;67.80;;;;;;6231868;28;20239;-84
2023/06/25 02:59:04;;;;;;;10.77;9.87;;;18.80;67.70;;;;;;6230845;28;20239;-85
2023/06/25 03:02:08;;;;;;;9.33;8.63;;;18.80;67.70;;;;;;6224849;28;20242;-85
2023/06/25 03:05:11;;;;;;;9.13;8.43;;;18.80;67.60;;;;;;6247733;28;20230;-86
2023/06/25 03:08:15;;;;;;;10.00;9.30;;;18.80;67.60;;;;;;6230568;28;20836;-84
2023/06/25 03:11:20;;;;;;;9.03;8.47;;;18.80;67.60;;;;;;6225612;28;20234;-84
2023/06/25 03:14:23;;;;;;;8.97;8.37;;;18.80;67.60;;;;;;6237760;28;20235;-86
2023/06/25 03:17:37;;;;;;;9.97;9.27;;;18.80;67.50;;;;;;6231896;28;20316;-84
2023/06/25 03:20:41;;;;;;;9.30;8.60;;;18.80;67.30;;;;;;6225778;28;20230;-85
2023/06/25 03:23:44;;;;;;;9.97;9.27;;;18.80;67.20;;;;;;6240638;28;20238;-83
2023/06/25 03:26:48;;;;;;;9.70;9.00;;;18.80;67.10;;;;;;6218068;28;20314;-83
2023/06/25 03:29:52;;;;;;;9.63;8.93;;;18.90;67.20;;;;;;6223403;28;20222;-84
2023/06/25 03:32:55;;;;;;;14.17;12.87;;;18.90;67.10;;;;;;6225200;28;20710;-84
2023/06/25 03:35:58;;;;;;;10.20;9.50;;;18.90;67.10;;;;;;6238235;28;20235;-82
2023/06/25 03:39:02;;;;;;;10.20;9.43;;;18.90;67.00;;;;;;6238509;28;20411;-82
2023/06/25 03:42:07;;;;;;;10.27;9.50;;;18.90;66.90;;;;;;6247682;28;20762;-83
2023/06/25 03:45:13;;;;;;;10.30;9.50;;;19.00;66.80;;;;;;6242131;28;20328;-81
2023/06/25 03:48:18;;;;;;;9.53;8.83;;;19.00;66.70;;;;;;6241026;28;20230;-83
2023/06/25 03:51:22;;;;;;;9.90;9.27;;;19.00;66.80;;;;;;6235089;28;20246;-81
2023/06/25 03:54:25;;;;;;;10.53;9.63;;;19.00;66.80;;;;;;6235724;28;20245;-82
2023/06/25 03:57:30;;;;;;;10.17;9.47;;;19.10;66.90;;;;;;6232587;28;20301;-84
2023/06/25 04:00:33;;;;;;;9.80;9.10;;;19.10;67.00;;;;;;6243314;28;20301;-83
2023/06/25 04:03:36;;;;;;;9.77;9.07;;;19.20;67.00;;;;;;6235719;28;20305;-83
2023/06/25 04:06:39;;;;;;;10.43;9.53;;;19.20;67.00;;;;;;6237839;28;20242;-84
2023/06/25 04:09:43;;;;;;;9.87;9.10;;;19.30;66.80;;;;;;6243238;28;20238;-84
2023/06/25 04:12:47;;;;;;;10.40;9.60;;;19.30;66.80;;;;;;6249666;28;20238;-84
2023/06/25 04:15:50;;;;;;;10.63;9.93;;;19.30;66.80;;;;;;6251297;28;20245;-84
2023/06/25 04:18:54;;;;;;;9.27;8.57;;;19.30;66.70;;;;;;6222787;28;20239;-80
2023/06/25 04:21:57;;;;;;;9.20;8.50;;;19.40;66.70;;;;;;6222684;28;20302;-78
2023/06/25 04:25:00;;;;;;;9.83;9.13;;;19.40;66.90;;;;;;6231732;28;20376;-81
2023/06/25 04:28:05;;;;;;;9.23;8.67;;;19.40;66.90;;;;;;6232556;28;20234;-79
2023/06/25 04:31:08;;;;;;;12.03;10.93;;;19.50;66.90;;;;;;6234503;28;20243;-81
2023/06/25 04:34:13;;;;;;;10.60;9.73;;;19.50;66.90;;;;;;6233721;28;20731;-81
2023/06/25 04:37:16;;;;;;;10.43;9.70;;;19.50;66.90;;;;;;6229546;28;20314;-78
2023/06/25 04:40:20;;;;;;;10.40;9.70;;;19.50;66.90;;;;;;6234124;28;20316;-79
2023/06/25 04:43:24;;;;;;;10.57;9.87;;;19.50;67.00;;;;;;6234630;28;20746;-80
2023/06/25 04:46:27;;;;;;;9.50;8.90;;;19.50;67.00;;;;;;6237183;28;20966;-81
2023/06/25 04:49:31;;;;;;;10.23;9.53;;;19.60;67.10;;;;;;6235497;28;20645;-78
2023/06/25 04:52:34;;;;;;;10.80;9.80;;;19.70;67.10;;;;;;6232245;28;20655;-81
2023/06/25 04:55:37;;;;;;;9.63;9.00;;;19.70;67.20;;;;;;6235649;28;20242;-82
2023/06/25 04:58:42;;;;;;;10.47;9.67;;;19.70;67.10;;;;;;6233601;28;20727;-81
2023/06/25 05:01:45;;;;;;;10.03;9.33;;;19.80;67.10;;;;;;6250379;28;20298;-79
2023/06/25 05:04:49;;;;;;;10.87;9.87;;;19.90;66.90;;;;;;6258244;28;20237;-79
2023/06/25 05:07:52;;;;;;;12.03;10.97;;;20.00;66.80;;;;;;6265787;28;20219;-79
2023/06/25 05:10:55;;;;;;;13.07;12.03;;;20.00;66.70;;;;;;6279973;28;20268;-80
2023/06/25 05:13:59;;;;;;;10.93;10.13;;;20.10;66.70;;;;;;6303071;28;20225;-77
2023/06/25 05:17:03;;;;;;;12.50;11.43;;;20.20;66.50;;;;;;6302657;28;20226;-77
2023/06/25 05:20:07;;;;;;;10.67;9.87;;;20.30;66.40;;;;;;6309962;28;20482;-76
2023/06/25 05:23:11;;;;;;;10.47;9.70;;;20.30;66.20;;;;;;6300915;28;20234;-82
2023/06/25 05:26:14;;;;;;;11.60;10.53;;;20.50;65.90;;;;;;6294223;28;20218;-80
2023/06/25 05:29:18;;;;;;;9.60;8.90;;;20.50;65.70;;;;;;6294003;28;20230;-76
2023/06/25 05:32:22;;;;;;;9.73;9.03;;;20.50;65.70;;;;;;6293812;28;20233;-79
2023/06/25 05:35:26;;;;;;;9.47;8.77;;;20.60;65.60;;;;;;6292003;28;20250;-76
2023/06/25 05:38:29;;;;;;;11.87;10.87;;;20.60;65.50;;;;;;6291592;28;20279;-77
2023/06/25 05:41:32;;;;;;;9.63;8.93;;;20.70;65.00;;;;;;6286338;28;20219;-74
2023/06/25 05:44:37;;;;;;;11.07;9.90;;;20.70;64.60;;;;;;6289535;28;20229;-77
2023/06/25 05:47:40;;;;;;;9.10;8.50;;;20.70;64.30;;;;;;6297799;28;20260;-77
2023/06/25 05:50:43;;;;;;;9.87;9.07;;;20.80;64.00;;;;;;6288699;28;20491;-76
2023/06/25 05:53:47;;;;;;;8.40;7.80;;;20.80;63.00;;;;;;6291952;28;20245;-77
2023/06/25 05:56:50;;;;;;;8.60;8.10;;;20.90;63.10;;;;;;6268549;28;20261;-78
2023/06/25 05:59:54;;;;;;;8.50;7.80;;;20.90;62.80;;;;;;6259458;28;20442;-77
2023/06/25 06:02:57;;;;;;;8.87;8.27;;;20.90;62.40;;;;;;6264677;28;20247;-77
2023/06/25 06:06:02;;;;;;;7.47;6.87;;;21.00;62.00;;;;;;6268616;28;20249;-79
2023/06/25 06:09:05;;;;;;;8.30;7.80;;;21.10;62.10;;;;;;6238165;28;20277;-79
2023/06/25 06:12:09;;;;;;;7.43;6.93;;;21.30;62.70;;;;;;6259671;28;20334;-78
2023/06/25 06:15:13;;;;;;;9.30;8.43;;;21.40;62.70;;;;;;6260455;28;20323;-79
2023/06/25 06:18:16;;;;;;;8.87;8.17;;;21.50;62.00;;;;;;6268345;28;20284;-79
2023/06/25 06:21:20;;;;;;;9.03;8.33;;;21.70;62.20;;;;;;6251147;28;20421;-79
2023/06/25 06:24:23;;;;;;;9.20;8.57;;;21.90;62.00;;;;;;6243397;28;20327;-79
2023/06/25 06:27:26;;;;;;;10.83;9.83;;;22.00;62.10;;;;;;6257136;28;20233;-79
2023/06/25 06:30:31;;;;;;;10.90;9.83;;;22.20;62.00;;;;;;6264164;28;20318;-78
2023/06/25 06:33:35;;;;;;;11.93;10.73;;;22.20;61.40;;;;;;6258276;28;20246;-78
2023/06/25 06:36:41;;;;;;;10.17;9.47;;;22.30;61.30;;;;;;6254602;28;20222;-78
2023/06/25 06:39:44;;;;;;;9.47;8.70;;;22.40;60.90;;;;;;6250961;28;20321;-78
2023/06/25 06:42:49;;;;;;;11.53;10.20;;;22.50;61.10;;;;;;6277293;28;20230;-78
2023/06/25 06:45:54;;;;;;;11.50;10.50;;;22.60;60.90;;;;;;6254291;28;20313;-77
2023/06/25 06:48:57;;;;;;;10.57;9.87;;;22.60;61.10;;;;;;6243900;28;20261;-79
2023/06/25 06:52:00;;;;;;;10.40;9.60;;;22.70;61.50;;;;;;6252030;28;20737;-78
2023/06/25 06:55:05;;;;;;;10.93;10.07;;;22.80;61.70;;;;;;6270252;28;20285;-78
2023/06/25 06:58:08;;;;;;;10.97;9.90;;;22.90;61.50;;;;;;6252905;28;20617;-80
2023/06/25 07:01:13;;;;;;;10.23;9.33;;;23.00;61.20;;;;;;6249030;28;20238;-78
2023/06/25 07:04:16;;;;;;;9.97;9.20;;;23.20;60.50;;;;;;6259476;28;20249;-76
2023/06/25 07:07:19;;;;;;;11.80;10.97;;;23.40;60.30;;;;;;6265083;28;20334;-77
2023/06/25 07:10:22;;;;;;;10.73;9.97;;;23.60;60.00;;;;;;6255188;28;20275;-77
2023/06/25 07:13:27;;;;;;;9.00;8.40;;;23.60;59.00;;;;;;6273305;28;20671;-78
2023/06/25 07:16:32;;;;;;;9.47;8.67;;;23.80;59.20;;;;;;6290350;28;20209;-78
2023/06/25 07:19:35;;;;;;;10.43;9.57;;;23.80;57.50;;;;;;6284426;28;20249;-76
2023/06/25 07:22:40;;;;;;;9.37;8.67;;;23.90;57.30;;;;;;6305893;28;20233;-76
2023/06/25 07:25:43;;;;;;;8.97;8.37;;;24.00;56.80;;;;;;6294520;28;20217;-78
2023/06/25 07:28:46;;;;;;;9.17;8.33;;;23.90;57.50;;;;;;6291122;28;20218;-79
2023/06/25 07:31:50;;;;;;;8.83;8.17;;;24.00;57.00;;;;;;6294232;28;20219;-79
2023/06/25 07:34:54;;;;;;;9.50;8.70;;;24.30;57.30;;;;;;6278274;28;20221;-75
2023/06/25 07:37:57;;;;;;;9.13;8.37;;;24.40;56.20;;;;;;6275481;28;20223;-79
2023/06/25 07:41:00;;;;;;;8.40;7.80;;;24.50;57.80;;;;;;6283174;28;20234;-79
2023/06/25 07:44:04;;;;;;;8.67;7.97;;;24.70;55.30;;;;;;6281697;28;20316;-77
2023/06/25 07:47:28;;;;;;;7.70;7.30;;;25.00;55.50;;;;;;6273188;28;20247;-79
2023/06/25 07:50:31;;;;;;;10.27;8.20;;;25.40;54.70;;;;;;6281140;28;20256;-76
2023/06/25 07:53:35;;;;;;;8.37;7.87;;;25.30;54.40;;;;;;6283721;28;20237;-78
2023/06/25 07:56:38;;;;;;;9.00;8.20;;;25.20;54.00;;;;;;6284054;28;20248;-78
2023/06/25 07:59:42;;;;;;;8.93;8.27;;;25.10;54.50;;;;;;6277367;28;20231;-78
2023/06/25 08:02:57;;;;;;;8.30;7.70;;;25.20;54.30;;;;;;6259387;28;20638;-81
2023/06/25 08:06:04;;;;;;;8.13;7.50;;;24.70;55.10;;;;;;6255809;28;20226;-80
2023/06/25 08:09:07;;;;;;;8.63;8.00;;;25.00;55.90;;;;;;6246387;28;20866;-79
2023/06/25 08:12:11;;;;;;;8.87;8.17;;;25.00;55.20;;;;;;6267776;28;20237;-78
2023/06/25 08:15:14;;;;;;;8.63;8.10;;;25.00;54.40;;;;;;6255606;28;20257;-80
2023/06/25 08:18:18;;;;;;;7.80;7.30;;;25.00;54.40;;;;;;6259399;28;20237;-79
2023/06/25 08:21:21;;;;;;;7.83;7.23;;;25.20;55.00;;;;;;6259128;28;20249;-80
2023/06/25 08:24:25;;;;;;;7.60;7.30;;;25.40;55.00;;;;;;6254655;28;20233;-81
2023/06/25 08:27:28;;;;;;;8.67;8.17;;;25.60;55.40;;;;;;6260256;28;20236;-78
2023/06/25 08:30:31;;;;;;;7.73;7.23;;;25.60;54.10;;;;;;6264476;28;20320;-78
2023/06/25 08:33:35;;;;;;;8.10;7.63;;;25.60;54.80;;;;;;6268440;28;20275;-81
2023/06/25 08:36:38;;;;;;;7.57;7.27;;;25.80;54.30;;;;;;6257335;28;20676;-79
2023/06/25 08:39:41;;;;;;;8.47;7.97;;;26.00;54.20;;;;;;6255910;28;20795;-80
2023/06/25 08:42:45;;;;;;;8.57;8.03;;;26.10;54.20;;;;;;6249298;28;20365;-79
2023/06/25 08:45:48;;;;;;;7.77;7.27;;;26.10;52.80;;;;;;6258512;28;20234;-80
2023/06/25 08:48:54;;;;;;;9.27;8.53;;;26.30;52.70;;;;;;6258708;28;20233;-79
2023/06/25 08:52:00;;;;;;;8.27;7.77;;;26.30;52.80;;;;;;6249782;28;20238;-79
2023/06/25 08:55:03;;;;;;;7.53;7.13;;;26.30;53.10;;;;;;6252848;28;20452;-75
2023/06/25 08:58:07;;;;;;;7.23;6.93;;;26.40;51.80;;;;;;6263782;28;20728;-77
2023/06/25 09:01:12;;;;;;;9.00;8.50;;;26.60;52.30;;;;;;6256420;28;20300;-77
2023/06/25 09:04:17;;;;;;;9.07;8.37;;;26.70;51.60;;;;;;6260694;28;20881;-78
2023/06/25 09:07:20;;;;;;;9.50;8.80;;;26.60;51.50;;;;;;6256678;28;20801;-78
2023/06/25 09:10:23;;;;;;;9.10;8.60;;;26.60;51.10;;;;;;6260403;28;20251;-77
2023/06/25 09:13:28;;;;;;;7.97;7.57;;;26.30;52.40;;;;;;6255022;28;20373;-77
2023/06/25 09:16:32;;;;;;;7.93;7.53;;;26.40;51.80;;;;;;6256857;28;20234;-79
2023/06/25 09:19:36;;;;;;;8.27;7.67;;;26.70;53.20;;;;;;6252071;28;20278;-79
2023/06/25 09:22:50;;;;;;;8.57;7.97;;;26.80;52.90;;;;;;6261362;28;20323;-80
2023/06/25 09:25:53;;;;;;;7.87;7.33;;;26.90;52.10;;;;;;6253739;28;20265;-75
2023/06/25 09:28:59;;;;;;;9.40;8.70;;;27.00;51.40;;;;;;6259592;28;20321;-79
2023/06/25 09:32:08;;;;;;;8.73;8.23;;;27.10;50.50;;;;;;6243266;28;20869;-76
2023/06/25 09:35:12;;;;;;;9.00;8.50;;;27.00;51.50;;;;;;6248503;28;20295;-77
2023/06/25 09:38:16;;;;;;;8.97;8.07;;;26.80;51.60;;;;;;6257684;28;20968;-79
2023/06/25 09:41:23;;;;;;;8.67;8.17;;;26.80;51.80;;;;;;6261774;28;20238;-76
2023/06/25 09:44:27;;;;;;;7.93;7.53;;;26.60;52.40;;;;;;6262396;28;20234;-76
2023/06/25 09:47:31;;;;;;;8.63;8.03;;;26.90;52.20;;;;;;6264439;28;20285;-78
2023/06/25 09:50:39;;;;;;;8.63;8.13;;;26.90;52.10;;;;;;6254597;28;20249;-78
2023/06/25 09:53:46;;;;;;;8.53;8.13;;;26.80;53.20;;;;;;6271086;28;20797;-76
2023/06/25 09:56:50;;;;;;;9.03;8.43;;;26.80;51.90;;;;;;6256266;28;20769;-77
2023/06/25 09:59:54;;;;;;;7.93;7.53;;;26.90;52.30;;;;;;6255197;28;20303;-78
2023/06/25 10:02:57;;;;;;;9.37;8.57;;;27.00;52.20;;;;;;6264804;28;20352;-78
2023/06/25 10:06:03;;;;;;;8.33;7.63;;;26.90;53.20;;;;;;6255020;28;20242;-76
2023/06/25 10:09:07;;;;;;;8.10;7.37;;;27.00;52.10;;;;;;6259919;28;20234;-76
2023/06/25 10:12:11;;;;;;;8.07;7.40;;;26.90;52.40;;;;;;6261241;28;20238;-75
2023/06/25 10:15:14;;;;;;;8.30;7.70;;;27.10;51.60;;;;;;6257520;28;20250;-77
2023/06/25 10:18:23;;;;;;;6.50;6.20;;;27.20;51.90;;;;;;6251541;28;20695;-76
2023/06/25 10:21:28;;;;;;;8.20;7.63;;;27.40;51.70;;;;;;6249372;28;20246;-78
2023/06/25 10:24:41;;;;;;;8.77;8.17;;;27.50;51.90;;;;;;6263802;28;20245;-77
2023/06/25 10:27:45;;;;;;;8.30;7.70;;;27.50;51.40;;;;;;6261499;28;20321;-77
2023/06/25 10:30:49;;;;;;;6.13;5.90;;;27.40;53.00;;;;;;6262891;28;20292;-77
2023/06/25 10:34:02;;;;;;;6.80;6.30;;;27.50;50.70;;;;;;6256632;28;20706;-77
2023/06/25 10:37:07;;;;;;;7.57;7.07;;;27.60;51.20;;;;;;6255385;28;20307;-79
2023/06/25 10:40:11;;;;;;;7.70;7.20;;;27.70;51.30;;;;;;6243665;28;20243;-79
2023/06/25 10:43:18;;;;;;;7.47;7.00;;;27.40;50.50;;;;;;6239193;28;20242;-78
2023/06/25 10:46:29;;;;;;;6.67;6.17;;;27.10;51.20;;;;;;6254423;28;20253;-78
2023/06/25 10:49:37;;;;;;;7.40;6.70;;;27.10;52.40;;;;;;6253037;28;20235;-78
2023/06/25 10:52:42;;;;;;;6.80;6.40;;;26.90;51.70;;;;;;6258718;28;20260;-78
2023/06/25 10:55:47;;;;;;;6.77;6.47;;;27.10;51.70;;;;;;6246432;28;20321;-78
2023/06/25 10:58:56;;;;;;;7.20;6.80;;;27.40;52.10;;;;;;6255059;28;20831;-80
2023/06/25 11:02:13;;;;;;;6.00;5.67;;;27.90;50.70;;;;;;6265359;28;20617;-77
2023/06/25 11:05:17;;;;;;;7.35;7.00;;;28.10;50.50;;;;;;6251666;28;20320;-75
2023/06/25 11:08:25;;;;;;;6.60;6.30;;;28.40;50.80;;;;;;6222688;28;20616;-77
2023/06/25 11:11:30;;;;;;;8.07;7.30;;;28.50;50.30;;;;;;6232804;28;20751;-77
2023/06/25 11:14:33;;;;;;;7.50;6.90;;;28.30;49.60;;;;;;6235600;28;20253;-76
2023/06/25 11:17:36;;;;;;;6.40;6.10;;;28.10;49.80;;;;;;6222095;28;20246;-76
2023/06/25 11:20:41;;;;;;;7.13;6.60;;;28.10;50.70;;;;;;6231238;28;20763;-78
2023/06/25 11:23:47;;;;;;;7.13;6.83;;;27.80;50.70;;;;;;6235678;28;20251;-77
2023/06/25 11:26:57;;;;;;;7.67;7.10;;;27.60;50.80;;;;;;6231711;28;20266;-80
2023/06/25 11:30:03;;;;;;;7.10;6.70;;;27.80;51.10;;;;;;6226528;28;20227;-79
2023/06/25 11:33:11;;;;;;;6.73;6.13;;;27.70;51.90;;;;;;6232064;28;20246;-76
2023/06/25 11:36:14;;;;;;;7.13;6.83;;;27.80;51.30;;;;;;6229256;28;20699;-78
2023/06/25 11:39:19;;;;;;;6.47;5.97;;;28.10;50.90;;;;;;6217283;28;20250;-77
2023/06/25 11:42:24;;;;;;;6.68;6.35;;;28.20;50.50;;;;;;6223134;28;20265;-78
2023/06/25 11:45:38;;;;;;;6.25;5.95;;;28.30;50.70;;;;;;6229552;28;20238;-78
2023/06/25 11:48:48;;;;;;;6.55;6.15;;;28.40;50.10;;;;;;6213737;28;20238;-78
2023/06/25 11:51:53;;;;;;;6.43;6.13;;;28.50;51.10;;;;;;6230294;28;20235;-77
2023/06/25 11:54:58;;;;;;;6.32;6.13;;;28.50;50.20;;;;;;6225839;28;20250;-76
2023/06/25 11:58:01;;;;;;;6.55;6.25;;;28.50;50.10;;;;;;6230500;28;20865;-78
2023/06/25 12:01:05;;;;;;;6.07;5.87;;;28.30;50.00;;;;;;6230416;28;20238;-79
2023/06/25 12:04:11;;;;;;;6.32;5.95;;;28.10;50.80;;;;;;6214836;28;20243;-77
2023/06/25 12:07:14;;;;;;;5.95;5.65;;;28.20;50.00;;;;;;6219915;28;20250;-78
2023/06/25 12:10:19;;;;;;;6.40;5.90;;;28.20;50.70;;;;;;6218084;28;20239;-75
2023/06/25 12:13:22;;;;;;;7.03;6.57;;;28.30;50.90;;;;;;6236650;28;20391;-76
2023/06/25 12:16:25;;;;;;;6.60;6.28;;;28.50;50.40;;;;;;6221428;28;20242;-77
2023/06/25 12:19:28;;;;;;;6.30;5.95;;;28.60;51.00;;;;;;6231142;28;20261;-78
2023/06/25 12:22:31;;;;;;;5.90;5.63;;;28.10;50.60;;;;;;6234645;28;20238;-79
2023/06/25 12:25:38;;;;;;;6.85;6.45;;;28.10;51.20;;;;;;6233330;28;20234;-80
2023/06/25 12:28:41;;;;;;;6.17;5.87;;;27.90;50.30;;;;;;6213570;28;20228;-77
2023/06/25 12:31:45;;;;;;;7.43;7.00;;;27.60;51.40;;;;;;6231104;28;20262;-79
2023/06/25 12:34:48;;;;;;;6.33;6.00;;;27.30;51.60;;;;;;6230073;28;20822;-79
2023/06/25 12:37:51;;;;;;;7.33;6.73;;;27.00;51.80;;;;;;6238021;28;20230;-77
2023/06/25 12:40:57;;;;;;;7.37;6.63;;;26.90;52.50;;;;;;6264549;28;20320;-80
2023/06/25 12:44:00;;;;;;;7.10;6.70;;;26.50;53.30;;;;;;6261727;28;20254;-78
2023/06/25 12:47:03;;;;;;;6.70;6.30;;;26.40;52.80;;;;;;6256990;28;20237;-77
2023/06/25 12:50:07;;;;;;;7.00;6.60;;;26.40;52.90;;;;;;6251504;28;20369;-77
2023/06/25 12:53:11;;;;;;;7.10;6.60;;;26.30;53.00;;;;;;6261893;28;20230;-80
2023/06/25 12:56:18;;;;;;;6.77;6.37;;;26.20;53.40;;;;;;6244668;28;20321;-80
2023/06/25 12:59:21;;;;;;;7.10;6.70;;;26.40;53.30;;;;;;6233073;28;20866;-82
2023/06/25 13:02:24;;;;;;;7.07;6.57;;;26.70;53.20;;;;;;6237158;28;20243;-80
2023/06/25 13:05:27;;;;;;;7.33;6.57;;;26.80;53.00;;;;;;6236745;28;20270;-78
2023/06/25 13:08:30;;;;;;;6.20;6.00;;;27.00;52.60;;;;;;6225425;28;20238;-77
2023/06/25 13:11:37;;;;;;;6.60;6.30;;;27.30;52.90;;;;;;6230951;28;20322;-77
2023/06/25 13:14:42;;;;;;;6.83;6.50;;;27.40;52.30;;;;;;6228075;28;20231;-77
2023/06/25 13:17:45;;;;;;;7.33;6.90;;;27.60;52.00;;;;;;6217074;28;20235;-75
2023/06/25 13:20:48;;;;;;;7.80;7.00;;;27.70;51.50;;;;;;6229470;28;20230;-76
2023/06/25 13:23:52;;;;;;;6.83;6.53;;;27.50;52.20;;;;;;6232209;28;20884;-77
2023/06/25 13:26:56;;;;;;;5.57;5.37;;;27.70;51.20;;;;;;6230624;28;20850;-77
2023/06/25 13:30:01;;;;;;;6.40;6.00;;;27.80;50.80;;;;;;6229420;28;20233;-77
2023/06/25 13:33:05;;;;;;;6.60;6.20;;;28.00;51.50;;;;;;6233719;28;20234;-78
2023/06/25 13:36:08;;;;;;;8.40;6.23;;;28.10;50.30;;;;;;6262107;28;20230;-78
2023/06/25 13:39:11;;;;;;;6.07;5.63;;;28.10;51.20;;;;;;6259031;28;20227;-77
2023/06/25 13:42:18;;;;;;;5.90;5.50;;;28.10;50.20;;;;;;6252186;28;20746;-76
2023/06/25 13:45:22;;;;;;;5.60;5.30;;;28.10;50.60;;;;;;6222167;28;20884;-77
2023/06/25 13:48:25;;;;;;;6.53;6.00;;;28.30;50.50;;;;;;6233514;28;20833;-76
2023/06/25 13:51:28;;;;;;;6.00;5.70;;;28.30;50.30;;;;;;6245284;28;20246;-75
2023/06/25 13:54:31;;;;;;;5.60;5.40;;;28.10;50.60;;;;;;6247217;28;20824;-78
2023/06/25 13:57:36;;;;;;;6.50;6.20;;;28.30;50.80;;;;;;6256849;28;20238;-77
2023/06/25 14:00:39;;;;;;;6.43;6.13;;;28.10;50.30;;;;;;6249883;28;20296;-75
2023/06/25 14:03:43;;;;;;;5.43;5.13;;;27.90;51.00;;;;;;6246102;28;20863;-77
2023/06/25 14:06:46;;;;;;;6.13;5.82;;;28.10;51.10;;;;;;6262267;28;20720;-79
2023/06/25 14:09:49;;;;;;;5.40;5.10;;;28.40;50.10;;;;;;6244802;28;20296;-76
2023/06/25 14:12:54;;;;;;;6.95;6.65;;;28.50;50.00;;;;;;6246440;28;20243;-76
2023/06/25 14:15:57;;;;;;;6.07;5.77;;;28.70;50.30;;;;;;6242093;28;20543;-75
2023/06/25 14:19:17;;;;;;;5.57;5.30;;;29.00;49.60;;;;;;6252478;28;20261;-76
2023/06/25 14:22:21;;;;;;;6.40;6.00;;;29.00;49.20;;;;;;6256867;28;20250;-76
2023/06/25 14:25:24;;;;;;;7.07;6.68;;;29.00;50.10;;;;;;6253851;28;20241;-77
2023/06/25 14:28:29;;;;;;;5.88;5.60;;;28.90;49.50;;;;;;6237483;28;20266;-76
2023/06/25 14:31:35;;;;;;;5.88;5.57;;;28.90;50.20;;;;;;6249449;28;20243;-78
2023/06/25 14:34:39;;;;;;;6.40;6.07;;;28.90;50.20;;;;;;6247058;28;20227;-77
2023/06/25 14:37:42;;;;;;;5.70;5.45;;;28.80;49.90;;;;;;6256046;28;20353;-77
2023/06/25 14:40:45;;;;;;;6.57;6.10;;;28.90;50.30;;;;;;6263244;28;20241;-75
2023/06/25 14:43:49;;;;;;;6.63;6.13;;;29.00;50.00;;;;;;6252747;28;20238;-75
2023/06/25 14:46:52;;;;;;;5.65;5.45;;;28.90;50.00;;;;;;6258624;28;20836;-77
2023/06/25 14:49:55;;;;;;;5.40;5.20;;;28.90;50.00;;;;;;6258925;28;20686;-78
2023/06/25 14:52:58;;;;;;;6.78;6.38;;;29.10;50.10;;;;;;6260752;28;20741;-77
2023/06/25 14:56:02;;;;;;;6.40;6.00;;;29.10;50.30;;;;;;6258346;28;20363;-79
2023/06/25 14:59:08;;;;;;;6.57;6.07;;;28.90;49.60;;;;;;6257888;28;20233;-81
2023/06/25 15:02:11;;;;;;;5.95;5.65;;;29.00;50.00;;;;;;6263640;28;20234;-80
2023/06/25 15:05:15;;;;;;;6.25;6.05;;;28.70;51.00;;;;;;6252813;28;20222;-77
2023/06/25 15:08:18;;;;;;;6.90;6.20;;;28.90;50.10;;;;;;6258730;28;20242;-77
2023/06/25 15:11:25;;;;;;;6.32;5.95;;;29.00;50.10;;;;;;6253777;28;20238;-77
2023/06/25 15:14:30;;;;;;;6.43;6.13;;;29.20;49.60;;;;;;6250135;28;20243;-77
2023/06/25 15:17:33;;;;;;;6.25;5.95;;;28.90;49.90;;;;;;6230018;28;20235;-77
2023/06/25 15:20:36;;;;;;;6.60;6.15;;;28.60;50.20;;;;;;6228604;28;20258;-77
2023/06/25 15:23:39;;;;;;;7.05;6.55;;;28.60;50.80;;;;;;6234566;28;20238;-77
2023/06/25 15:26:42;;;;;;;6.72;6.28;;;28.60;50.50;;;;;;6218210;28;20687;-77
2023/06/25 15:29:46;;;;;;;6.37;6.07;;;28.60;50.80;;;;;;6231330;28;20342;-77
2023/06/25 15:32:49;;;;;;;6.33;6.07;;;28.40;50.30;;;;;;6232515;28;20369;-76
2023/06/25 15:35:52;;;;;;;6.13;5.90;;;28.40;50.60;;;;;;6228929;28;20227;-77
2023/06/25 15:38:56;;;;;;;6.43;6.10;;;28.30;50.10;;;;;;6233636;28;20257;-75
2023/06/25 15:41:59;;;;;;;6.80;6.47;;;28.40;50.40;;;;;;6232001;28;20367;-77
2023/06/25 15:45:04;;;;;;;6.77;6.33;;;28.30;50.30;;;;;;6231557;28;20242;-78
2023/06/25 15:48:07;;;;;;;6.63;6.23;;;28.10;51.10;;;;;;6230911;28;20258;-78
2023/06/25 15:51:10;;;;;;;8.23;6.85;;;28.30;50.80;;;;;;6230135;28;20235;-77